createdAt,value
2018-02-18T00:00:06.096Z,73.65
2018-02-18T00:02:33.751Z,73.69
2018-02-18T00:05:01.356Z,73.69
2018-02-18T00:07:29.023Z,73.78
2018-02-18T00:09:56.612Z,73.64
2018-02-18T00:12:24.236Z,73.45
2018-02-18T00:17:48.271Z,73.36
2018-02-18T00:20:15.880Z,73.44
2018-02-18T00:22:43.597Z,73.51
2018-02-18T00:25:11.212Z,73.29
2018-02-18T00:27:38.940Z,73.19
2018-02-18T00:30:06.552Z,73.24
2018-02-18T00:32:34.176Z,73.37
2018-02-18T00:35:01.776Z,73.30
2018-02-18T00:37:29.409Z,73.29
2018-02-18T00:39:57.020Z,73.24
2018-02-18T00:42:24.620Z,73.20
2018-02-18T00:44:52.275Z,73.21
2018-02-18T00:47:19.880Z,73.26
2018-02-18T00:49:47.506Z,73.52
2018-02-18T00:52:15.109Z,73.56
2018-02-18T00:54:42.824Z,73.70
2018-02-18T00:57:10.493Z,73.82
2018-02-18T00:59:38.122Z,73.83
2018-02-18T01:02:05.814Z,74.11
2018-02-18T01:04:33.444Z,74.26
2018-02-18T01:07:01.141Z,74.59
2018-02-18T01:09:28.773Z,74.63
2018-02-18T01:11:56.460Z,74.90
2018-02-18T01:14:24.128Z,74.96
2018-02-18T01:16:51.737Z,75.02
2018-02-18T01:19:19.363Z,74.91
2018-02-18T01:21:46.965Z,74.86
2018-02-18T01:24:14.593Z,74.74
2018-02-18T01:26:42.240Z,74.64
2018-02-18T01:29:09.844Z,74.70
2018-02-18T01:31:37.560Z,74.84
2018-02-18T01:34:05.224Z,74.65
2018-02-18T01:36:32.884Z,74.71
2018-02-18T01:39:00.492Z,74.61
2018-02-18T01:41:28.125Z,74.55
2018-02-18T01:43:55.771Z,74.39
2018-02-18T01:46:23.395Z,74.28
2018-02-18T01:48:50.999Z,74.27
2018-02-18T01:51:18.656Z,74.42
2018-02-18T01:53:46.257Z,74.47
2018-02-18T01:56:13.984Z,74.47
2018-02-18T01:58:41.648Z,74.56
2018-02-18T02:01:09.252Z,74.64
2018-02-18T02:03:36.877Z,74.52
2018-02-18T02:06:04.536Z,74.53
2018-02-18T02:08:32.159Z,74.50
2018-02-18T02:10:59.751Z,74.37
2018-02-18T02:13:27.421Z,74.30
2018-02-18T02:15:55.795Z,74.37
2018-02-18T02:18:23.428Z,74.34
2018-02-18T02:20:51.123Z,74.33
2018-02-18T02:23:18.747Z,74.18
2018-02-18T02:25:46.343Z,74.24
2018-02-18T02:28:13.975Z,74.20
2018-02-18T02:30:41.575Z,74.14
2018-02-18T02:33:09.227Z,74.27
2018-02-18T02:35:36.864Z,74.46
2018-02-18T02:38:04.460Z,74.33
2018-02-18T02:40:32.099Z,74.05
2018-02-18T02:42:59.704Z,73.83
2018-02-18T02:45:27.443Z,73.86
2018-02-18T02:47:55.104Z,73.89
2018-02-18T02:50:22.728Z,73.87
2018-02-18T02:52:50.433Z,73.94
2018-02-18T02:55:18.102Z,73.76
2018-02-18T02:57:45.713Z,73.70
2018-02-18T03:00:13.344Z,73.75
2018-02-18T03:02:40.947Z,73.84
2018-02-18T03:05:08.554Z,74.03
2018-02-18T03:07:36.260Z,74.08
2018-02-18T03:10:03.972Z,74.10
2018-02-18T03:12:31.631Z,74.17
2018-02-18T03:14:59.296Z,74.32
2018-02-18T03:17:26.930Z,74.38
2018-02-18T03:19:54.620Z,74.33
2018-02-18T03:22:22.279Z,74.33
2018-02-18T03:24:49.951Z,74.26
2018-02-18T03:27:18.428Z,74.21
2018-02-18T03:29:46.027Z,74.21
2018-02-18T03:32:13.632Z,74.25
2018-02-18T03:34:41.311Z,74.35
2018-02-18T03:37:08.989Z,74.35
2018-02-18T03:39:36.619Z,74.34
2018-02-18T03:42:04.224Z,74.19
2018-02-18T03:44:31.847Z,74.03
2018-02-18T03:46:59.524Z,74.05
2018-02-18T03:49:27.155Z,74.19
2018-02-18T03:51:54.847Z,74.18
2018-02-18T03:54:22.488Z,74.23
2018-02-18T03:56:50.176Z,74.14
2018-02-18T03:59:17.840Z,74.10
2018-02-18T04:01:45.441Z,74.03
2018-02-18T04:04:13.069Z,73.80
2018-02-18T04:06:40.691Z,73.78
2018-02-18T04:09:08.382Z,73.81
2018-02-18T04:11:36.015Z,73.71
2018-02-18T04:14:03.712Z,73.74
2018-02-18T04:16:31.381Z,73.84
2018-02-18T04:18:58.979Z,73.93
2018-02-18T04:21:26.698Z,74.18
2018-02-18T04:23:54.369Z,74.41
2018-02-18T04:26:22.025Z,74.58
2018-02-18T04:28:49.688Z,74.62
2018-02-18T04:31:17.340Z,74.65
2018-02-18T04:33:45.022Z,74.59
2018-02-18T04:36:12.629Z,74.68
2018-02-18T04:38:40.340Z,74.64
2018-02-18T04:41:08.007Z,74.63
2018-02-18T04:43:35.663Z,74.62
2018-02-18T04:46:03.281Z,74.67
2018-02-18T04:48:31.006Z,74.66
2018-02-18T04:50:58.651Z,74.67
2018-02-18T04:53:26.325Z,74.68
2018-02-18T04:55:53.929Z,74.71
2018-02-18T04:58:21.561Z,74.87
2018-02-18T05:00:49.173Z,74.83
2018-02-18T05:03:16.822Z,74.78
2018-02-18T05:05:44.423Z,74.82
2018-02-18T05:08:12.086Z,74.69
2018-02-18T05:10:39.753Z,74.74
2018-02-18T05:13:07.357Z,74.80
2018-02-18T05:15:35.075Z,74.75
2018-02-18T05:18:02.675Z,74.83
2018-02-18T05:20:30.312Z,74.92
2018-02-18T05:22:57.908Z,74.74
2018-02-18T05:25:25.633Z,74.69
2018-02-18T05:27:53.287Z,74.61
2018-02-18T05:30:20.957Z,74.80
2018-02-18T05:32:48.559Z,74.85
2018-02-18T05:35:16.194Z,74.82
2018-02-18T05:37:43.840Z,74.87
2018-02-18T05:40:11.501Z,74.71
2018-02-18T05:42:39.103Z,74.54
2018-02-18T05:45:06.727Z,74.50
2018-02-18T05:47:34.366Z,74.40
2018-02-18T05:50:01.978Z,74.32
2018-02-18T05:52:29.715Z,74.28
2018-02-18T05:54:57.316Z,74.23
2018-02-18T05:57:24.955Z,74.18
2018-02-18T05:59:52.551Z,74.22
2018-02-18T06:02:20.177Z,74.33
2018-02-18T06:04:47.779Z,74.49
2018-02-18T06:07:15.489Z,74.67
2018-02-18T06:09:43.088Z,74.64
2018-02-18T06:12:10.813Z,74.51
2018-02-18T06:14:38.472Z,74.53
2018-02-18T06:17:06.144Z,74.63
2018-02-18T06:19:33.743Z,74.64
2018-02-18T06:22:01.355Z,74.82
2018-02-18T06:24:29.032Z,74.74
2018-02-18T06:26:56.684Z,74.59
2018-02-18T06:29:24.354Z,74.47
2018-02-18T06:31:51.960Z,74.29
2018-02-18T06:34:19.589Z,74.39
2018-02-18T06:36:47.196Z,74.54
2018-02-18T06:39:14.833Z,74.51
2018-02-18T06:41:42.456Z,74.50
2018-02-18T06:44:10.093Z,74.53
2018-02-18T06:46:37.695Z,74.62
2018-02-18T06:49:05.343Z,74.56
2018-02-18T06:51:33.000Z,74.48
2018-02-18T06:54:00.673Z,74.41
2018-02-18T06:56:28.295Z,74.43
2018-02-18T06:58:55.996Z,74.50
2018-02-18T07:01:23.621Z,74.48
2018-02-18T07:03:51.215Z,74.44
2018-02-18T07:06:18.844Z,74.50
2018-02-18T07:08:46.440Z,74.25
2018-02-18T07:11:14.073Z,74.09
2018-02-18T07:13:41.677Z,74.04
2018-02-18T07:16:09.302Z,73.87
2018-02-18T07:18:36.917Z,73.87
2018-02-18T07:21:04.539Z,73.75
2018-02-18T07:23:32.144Z,73.67
2018-02-18T07:25:59.881Z,73.46
2018-02-18T07:28:27.532Z,73.45
2018-02-18T07:30:55.145Z,73.34
2018-02-18T07:33:22.773Z,73.38
2018-02-18T07:35:50.429Z,73.24
2018-02-18T07:38:18.083Z,73.10
2018-02-18T07:40:45.747Z,72.90
2018-02-18T07:43:13.367Z,72.82
2018-02-18T07:45:40.973Z,72.53
2018-02-18T07:48:08.633Z,72.27
2018-02-18T07:50:36.240Z,72.22
2018-02-18T07:53:03.866Z,71.96
2018-02-18T07:55:31.467Z,71.79
2018-02-18T07:57:59.184Z,71.40
2018-02-18T08:00:26.791Z,71.12
2018-02-18T08:02:54.442Z,70.78
2018-02-18T08:05:22.053Z,70.55
2018-02-18T08:07:49.665Z,70.29
2018-02-18T08:10:17.363Z,70.27
2018-02-18T08:12:44.976Z,70.11
2018-02-18T08:15:12.603Z,70.16
2018-02-18T08:17:40.206Z,70.08
2018-02-18T08:20:07.836Z,69.86
2018-02-18T08:22:35.505Z,69.71
2018-02-18T08:25:03.132Z,69.50
2018-02-18T08:27:30.732Z,69.12
2018-02-18T08:29:58.372Z,68.93
2018-02-18T08:32:26.053Z,68.97
2018-02-18T08:34:53.697Z,68.94
2018-02-18T08:37:21.382Z,68.37
2018-02-18T08:39:48.987Z,68.19
2018-02-18T08:42:16.607Z,67.83
2018-02-18T08:44:44.203Z,67.48
2018-02-18T08:47:11.929Z,67.25
2018-02-18T08:49:39.590Z,66.97
2018-02-18T08:52:07.216Z,67.08
2018-02-18T08:54:34.916Z,66.74
2018-02-18T08:57:02.552Z,66.39
2018-02-18T08:59:30.244Z,65.95
2018-02-18T09:01:57.928Z,65.93
2018-02-18T09:04:25.519Z,65.29
2018-02-18T09:06:53.117Z,65.41
2018-02-18T09:09:20.787Z,64.67
2018-02-18T09:11:48.400Z,63.99
2018-02-18T09:14:16.023Z,63.70
2018-02-18T09:16:43.676Z,63.50
2018-02-18T09:19:11.340Z,63.61
2018-02-18T09:21:39.000Z,63.88
2018-02-18T09:24:06.670Z,64.03
2018-02-18T09:26:34.329Z,63.85
2018-02-18T09:29:02.510Z,63.74
2018-02-18T09:31:30.120Z,63.38
2018-02-18T09:33:57.824Z,63.31
2018-02-18T09:36:25.427Z,63.35
2018-02-18T09:38:53.041Z,62.99
2018-02-18T09:41:20.773Z,62.03
2018-02-18T09:43:48.403Z,61.80
2018-02-18T09:46:16.024Z,61.57
2018-02-18T09:48:43.700Z,61.38
2018-02-18T09:51:11.363Z,61.54
2018-02-18T09:53:38.963Z,61.45
2018-02-18T09:56:06.600Z,61.30
2018-02-18T09:58:34.208Z,61.32
2018-02-18T10:01:01.835Z,61.72
2018-02-18T10:03:29.439Z,61.72
2018-02-18T10:05:57.055Z,61.44
2018-02-18T10:08:24.695Z,61.05
2018-02-18T10:10:52.341Z,61.15
2018-02-18T10:13:19.947Z,60.89
2018-02-18T10:15:47.549Z,61.01
2018-02-18T10:18:15.175Z,60.81
2018-02-18T10:20:42.779Z,60.41
2018-02-18T10:23:10.411Z,60.04
2018-02-18T10:25:38.027Z,59.83
2018-02-18T10:28:05.688Z,60.00
2018-02-18T10:30:33.296Z,60.00
2018-02-18T10:33:00.924Z,60.25
2018-02-18T10:35:28.536Z,60.39
2018-02-18T10:37:56.164Z,60.69
2018-02-18T10:40:23.768Z,60.14
2018-02-18T10:42:51.463Z,59.44
2018-02-18T10:45:19.085Z,59.70
2018-02-18T10:47:46.797Z,59.33
2018-02-18T10:50:14.462Z,59.43
2018-02-18T10:52:42.069Z,59.21
2018-02-18T10:55:09.775Z,58.97
2018-02-18T10:57:37.384Z,59.46
2018-02-18T11:00:05.020Z,59.61
2018-02-18T11:02:32.633Z,59.94
2018-02-18T11:05:00.256Z,60.15
2018-02-18T11:07:27.865Z,60.49
2018-02-18T11:09:55.649Z,60.67
2018-02-18T11:12:23.311Z,60.60
2018-02-18T11:14:50.975Z,60.66
2018-02-18T11:17:18.585Z,60.84
2018-02-18T11:19:46.217Z,61.08
2018-02-18T11:22:13.873Z,61.25
2018-02-18T11:24:41.525Z,61.42
2018-02-18T11:27:09.137Z,61.12
2018-02-18T11:29:36.777Z,61.10
2018-02-18T11:32:04.429Z,60.62
2018-02-18T11:34:32.072Z,60.58
2018-02-18T11:36:59.685Z,60.85
2018-02-18T11:39:27.325Z,60.91
2018-02-18T11:41:54.929Z,60.29
2018-02-18T11:44:22.629Z,59.83
2018-02-18T11:46:50.256Z,59.72
2018-02-18T11:49:17.862Z,59.53
2018-02-18T11:51:45.483Z,59.50
2018-02-18T11:54:13.179Z,59.35
2018-02-18T11:56:40.804Z,59.34
2018-02-18T11:59:08.404Z,58.77
2018-02-18T12:01:36.032Z,59.02
2018-02-18T12:04:03.645Z,59.02
2018-02-18T12:06:31.280Z,59.19
2018-02-18T12:08:58.953Z,59.13
2018-02-18T12:11:26.604Z,58.98
2018-02-18T12:13:54.269Z,59.21
2018-02-18T12:16:21.905Z,59.08
2018-02-18T12:18:49.503Z,58.64
2018-02-18T12:21:17.151Z,58.40
2018-02-18T12:23:44.760Z,58.35
2018-02-18T12:26:12.369Z,58.00
2018-02-18T12:28:40.040Z,57.89
2018-02-18T12:31:07.653Z,57.32
2018-02-18T12:33:35.279Z,56.79
2018-02-18T12:36:02.937Z,56.87
2018-02-18T12:38:30.563Z,56.54
2018-02-18T12:40:58.248Z,56.36
2018-02-18T12:43:25.877Z,56.35
2018-02-18T12:45:53.478Z,55.84
2018-02-18T12:48:21.144Z,55.96
2018-02-18T12:50:48.754Z,56.14
2018-02-18T12:53:16.464Z,55.87
2018-02-18T12:55:44.129Z,55.73
2018-02-18T12:58:12.694Z,55.28
2018-02-18T13:00:40.371Z,55.24
2018-02-18T13:03:08.144Z,55.03
2018-02-18T13:05:35.813Z,54.80
2018-02-18T13:08:03.467Z,54.85
2018-02-18T13:10:31.089Z,54.76
2018-02-18T13:12:58.791Z,54.82
2018-02-18T13:15:26.449Z,54.90
2018-02-18T13:17:54.115Z,54.53
2018-02-18T13:20:21.776Z,54.55
2018-02-18T13:22:49.384Z,54.58
2018-02-18T13:25:17.015Z,54.23
2018-02-18T13:27:44.673Z,53.96
2018-02-18T13:30:12.332Z,54.05
2018-02-18T13:32:39.978Z,53.78
2018-02-18T13:35:07.571Z,53.31
2018-02-18T13:37:35.221Z,53.48
2018-02-18T13:40:02.873Z,53.66
2018-02-18T13:42:30.481Z,53.54
2018-02-18T13:44:58.084Z,53.29
2018-02-18T13:47:25.768Z,52.95
2018-02-18T13:49:53.429Z,52.45
2018-02-18T13:52:21.088Z,52.27
2018-02-18T13:54:48.747Z,52.14
2018-02-18T13:57:16.415Z,52.40
2018-02-18T13:59:44.012Z,52.54
2018-02-18T14:02:11.636Z,52.30
2018-02-18T14:04:39.300Z,52.04
2018-02-18T14:07:06.919Z,51.68
2018-02-18T14:09:34.520Z,50.75
2018-02-18T14:12:02.154Z,50.87
2018-02-18T14:14:29.755Z,51.02
2018-02-18T14:16:57.392Z,50.78
2018-02-18T14:19:24.992Z,50.82
2018-02-18T14:21:52.597Z,50.67
2018-02-18T14:24:20.295Z,50.54
2018-02-18T14:26:47.956Z,50.55
2018-02-18T14:29:15.624Z,50.17
2018-02-18T14:31:43.279Z,50.49
2018-02-18T14:34:10.948Z,50.55
2018-02-18T14:36:38.551Z,50.45
2018-02-18T14:39:06.185Z,50.64
2018-02-18T14:41:45.707Z,50.77
2018-02-18T14:44:25.353Z,51.06
2018-02-18T14:47:04.872Z,50.91
2018-02-18T14:52:44.147Z,50.92
2018-02-18T14:55:25.548Z,51.17
2018-02-18T14:57:53.209Z,51.31
2018-02-18T15:00:20.909Z,51.56
2018-02-18T15:02:48.514Z,51.94
2018-02-18T15:05:16.193Z,51.80
2018-02-18T15:07:43.800Z,51.89
2018-02-18T15:10:11.437Z,51.31
2018-02-18T15:12:39.045Z,50.84
2018-02-18T15:15:06.687Z,50.99
2018-02-18T15:17:34.286Z,51.39
2018-02-18T15:20:01.889Z,51.76
2018-02-18T15:22:29.521Z,51.95
2018-02-18T15:24:57.119Z,51.76
2018-02-18T15:27:24.749Z,51.51
2018-02-18T15:29:52.344Z,51.81
2018-02-18T15:32:20.064Z,51.64
2018-02-18T15:34:47.665Z,51.19
2018-02-18T15:37:15.389Z,50.91
2018-02-18T15:39:43.060Z,50.90
2018-02-18T15:42:10.692Z,50.56
2018-02-18T15:44:38.299Z,51.06
2018-02-18T15:47:05.955Z,51.42
2018-02-18T15:49:33.560Z,51.78
2018-02-18T15:52:01.367Z,51.89
2018-02-18T15:54:29.027Z,52.13
2018-02-18T15:56:56.666Z,52.46
2018-02-18T15:59:24.268Z,52.59
2018-02-18T16:01:51.901Z,52.74
2018-02-18T16:04:19.631Z,53.04
2018-02-18T16:06:47.231Z,53.32
2018-02-18T16:09:14.904Z,53.51
2018-02-18T16:11:42.511Z,53.35
2018-02-18T16:14:10.145Z,53.49
2018-02-18T16:16:37.806Z,53.30
2018-02-18T16:19:05.451Z,53.30
2018-02-18T16:21:33.131Z,53.41
2018-02-18T16:24:00.789Z,53.33
2018-02-18T16:26:28.401Z,53.09
2018-02-18T16:28:56.028Z,53.14
2018-02-18T16:31:23.629Z,53.25
2018-02-18T16:33:51.258Z,53.16
2018-02-18T16:36:18.892Z,53.22
2018-02-18T16:38:46.520Z,53.42
2018-02-18T16:41:14.212Z,53.62
2018-02-18T16:43:41.815Z,53.85
2018-02-18T16:46:09.549Z,54.02
2018-02-18T16:48:37.208Z,54.04
2018-02-18T16:51:04.877Z,54.02
2018-02-18T16:53:32.527Z,54.05
2018-02-18T16:56:00.160Z,54.05
2018-02-18T16:58:27.755Z,54.09
2018-02-18T17:00:55.385Z,54.27
2018-02-18T17:03:23.099Z,54.64
2018-02-18T17:05:50.733Z,54.74
2018-02-18T17:08:18.331Z,54.87
2018-02-18T17:10:46.069Z,55.18
2018-02-18T17:13:13.677Z,55.50
2018-02-18T17:15:41.359Z,55.64
2018-02-18T17:18:09.054Z,56.08
2018-02-18T17:20:36.683Z,56.31
2018-02-18T17:23:04.284Z,56.42
2018-02-18T17:25:31.948Z,56.44
2018-02-18T17:27:59.621Z,56.38
2018-02-18T17:30:27.243Z,56.51
2018-02-18T17:32:54.846Z,56.34
2018-02-18T17:35:22.491Z,56.29
2018-02-18T17:37:50.095Z,55.78
2018-02-18T17:40:17.821Z,55.60
2018-02-18T17:42:45.448Z,55.14
2018-02-18T17:45:13.053Z,54.99
2018-02-18T17:47:40.683Z,54.79
2018-02-18T17:50:08.283Z,55.03
2018-02-18T17:52:35.910Z,54.76
2018-02-18T17:55:03.516Z,54.41
2018-02-18T17:57:31.143Z,54.57
2018-02-18T17:59:58.750Z,54.50
2018-02-18T18:02:26.381Z,54.24
2018-02-18T18:04:53.988Z,54.17
2018-02-18T18:07:21.615Z,54.22
2018-02-18T18:09:49.221Z,54.19
2018-02-18T18:12:16.928Z,54.21
2018-02-18T18:14:44.540Z,54.33
2018-02-18T18:17:12.138Z,54.29
2018-02-18T18:19:39.767Z,54.16
2018-02-18T18:22:07.387Z,54.02
2018-02-18T18:24:35.041Z,54.02
2018-02-18T18:27:02.691Z,54.10
2018-02-18T18:29:30.319Z,54.21
2018-02-18T18:31:57.926Z,54.25
2018-02-18T18:34:25.549Z,54.45
2018-02-18T18:36:53.159Z,54.71
2018-02-18T18:39:20.778Z,54.90
2018-02-18T18:41:48.468Z,54.87
2018-02-18T18:44:16.095Z,55.01
2018-02-18T18:46:43.784Z,55.19
2018-02-18T18:49:11.408Z,55.37
2018-02-18T18:51:39.013Z,55.54
2018-02-18T18:54:06.672Z,55.66
2018-02-18T18:56:34.338Z,55.80
2018-02-18T18:59:01.999Z,55.95
2018-02-18T19:01:29.658Z,55.93
2018-02-18T19:03:57.324Z,56.15
2018-02-18T19:06:25.010Z,56.63
2018-02-18T19:08:52.629Z,56.48
2018-02-18T19:11:20.311Z,56.46
2018-02-18T19:13:47.936Z,56.69
2018-02-18T19:16:15.584Z,56.77
2018-02-18T19:18:43.312Z,56.71
2018-02-18T19:21:10.963Z,56.89
2018-02-18T19:23:38.560Z,57.08
2018-02-18T19:26:06.197Z,57.21
2018-02-18T19:28:33.852Z,57.30
2018-02-18T19:31:01.509Z,57.37
2018-02-18T19:33:29.109Z,57.57
2018-02-18T19:35:56.836Z,57.71
2018-02-18T19:38:24.432Z,57.87
2018-02-18T19:40:52.047Z,57.95
2018-02-18T19:43:19.657Z,58.01
2018-02-18T19:45:47.280Z,58.11
2018-02-18T19:48:14.944Z,58.22
2018-02-18T19:50:42.575Z,58.47
2018-02-18T19:53:10.179Z,58.73
2018-02-18T19:55:37.833Z,58.98
2018-02-18T19:58:05.444Z,59.06
2018-02-18T20:00:33.155Z,59.18
2018-02-18T20:03:00.824Z,59.12
2018-02-18T20:05:28.485Z,59.26
2018-02-18T20:07:56.144Z,59.39
2018-02-18T20:10:23.743Z,59.74
2018-02-18T20:12:51.362Z,59.98
2018-02-18T20:15:18.968Z,59.96
2018-02-18T20:17:46.591Z,60.11
2018-02-18T20:20:14.253Z,60.13
2018-02-18T20:22:41.884Z,60.32
2018-02-18T20:25:09.475Z,60.60
2018-02-18T20:27:37.343Z,60.51
2018-02-18T20:30:04.945Z,60.62
2018-02-18T20:32:32.675Z,60.68
2018-02-18T20:35:00.393Z,60.71
2018-02-18T20:37:27.999Z,60.76
2018-02-18T20:39:55.637Z,60.80
2018-02-18T20:42:23.323Z,61.00
2018-02-18T20:44:50.945Z,61.11
2018-02-18T20:47:18.560Z,61.24
2018-02-18T20:49:46.188Z,61.29
2018-02-18T20:52:13.796Z,61.48
2018-02-18T20:54:41.429Z,61.73
2018-02-18T20:57:09.033Z,62.18
2018-02-18T20:59:36.756Z,62.33
2018-02-18T21:02:04.432Z,62.47
2018-02-18T21:04:32.076Z,62.45
2018-02-18T21:06:59.743Z,62.42
2018-02-18T21:09:27.409Z,62.24
2018-02-18T21:11:55.071Z,62.11
2018-02-18T21:14:22.733Z,61.83
2018-02-18T21:16:50.497Z,61.71
2018-02-18T21:19:18.133Z,61.58
2018-02-18T21:21:45.723Z,61.52
2018-02-18T21:24:13.332Z,61.55
2018-02-18T21:26:40.961Z,61.39
2018-02-18T21:29:08.564Z,61.48
2018-02-18T21:31:36.197Z,61.48
2018-02-18T21:34:03.805Z,61.39
2018-02-18T21:36:31.436Z,61.36
2018-02-18T21:38:59.058Z,61.36
2018-02-18T21:41:26.783Z,61.34
2018-02-18T21:43:54.384Z,61.37
2018-02-18T21:46:22.049Z,61.44
2018-02-18T21:48:49.717Z,61.53
2018-02-18T21:51:17.317Z,61.66
2018-02-18T21:53:44.948Z,61.62
2018-02-18T21:56:12.653Z,61.86
2018-02-18T21:58:40.279Z,61.62
2018-02-18T22:01:07.916Z,61.56
2018-02-18T22:03:35.548Z,61.58
2018-02-18T22:06:03.158Z,61.47
2018-02-18T22:08:30.813Z,61.46
2018-02-18T22:10:58.412Z,61.50
2018-02-18T22:13:26.125Z,61.48
2018-02-18T22:15:53.788Z,61.44
2018-02-18T22:18:21.452Z,61.41
2018-02-18T22:20:49.120Z,61.40
2018-02-18T22:23:16.715Z,61.50
2018-02-18T22:25:44.332Z,61.49
2018-02-18T22:28:12.005Z,61.64
2018-02-18T22:30:39.621Z,61.60
2018-02-18T22:33:07.229Z,61.55
2018-02-18T22:35:34.897Z,61.59
2018-02-18T22:38:02.548Z,61.61
2018-02-18T22:40:30.212Z,61.66
2018-02-18T22:42:57.820Z,61.63
2018-02-18T22:45:25.440Z,61.75
2018-02-18T22:47:53.100Z,61.78
2018-02-18T22:50:20.768Z,61.70
2018-02-18T22:52:48.383Z,61.85
2018-02-18T22:55:16.087Z,61.87
2018-02-18T22:57:43.688Z,61.89
2018-02-18T23:00:17.240Z,61.95
2018-02-18T23:02:44.912Z,62.08
2018-02-18T23:05:18.283Z,62.19
2018-02-18T23:07:45.879Z,62.19
2018-02-18T23:10:13.489Z,62.23
2018-02-18T23:12:41.195Z,62.26
2018-02-18T23:15:08.805Z,62.42
2018-02-18T23:17:36.436Z,62.51
2018-02-18T23:20:04.045Z,62.56
2018-02-18T23:22:31.675Z,62.64
2018-02-18T23:24:59.301Z,62.70
2018-02-18T23:27:26.919Z,62.75
2018-02-18T23:29:54.529Z,62.83
2018-02-18T23:32:22.192Z,62.80
2018-02-18T23:34:49.853Z,62.90
2018-02-18T23:37:17.483Z,62.91
2018-02-18T23:39:45.083Z,63.01
2018-02-18T23:42:12.708Z,63.00
2018-02-18T23:44:40.308Z,63.03
2018-02-18T23:47:07.930Z,63.01
2018-02-18T23:49:35.627Z,63.01
2018-02-18T23:52:03.271Z,63.14
2018-02-18T23:54:30.875Z,63.16
2018-02-18T23:56:58.512Z,63.20
2018-02-18T23:59:26.146Z,63.31
